Time;durP1;ratioP1;P1;durP2;ratioP2;P2;SDS_P1;SDS_P2;PMS_P1;PMS_P2;Temp;Humidity;BMP_temperature;BMP_pressure;BME280_temperature;BME280_humidity;BME280_pressure;Samples;Min_cycle;Max_cycle;Signal;HPM_P1;HPM_P2
2023/08/22 00:03:10;;;;;;;4.27;3.23;;;23.10;91.00;;;;;;10357123;28;20408;-65
2023/08/22 00:08:11;;;;;;;5.17;3.30;;;23.10;91.00;;;;;;10355859;28;20436;-65
2023/08/22 00:13:11;;;;;;;4.90;3.33;;;23.10;91.10;;;;;;10363329;28;20392;-66
2023/08/22 00:18:12;;;;;;;4.47;3.35;;;23.10;91.10;;;;;;10362291;28;20933;-65
2023/08/22 00:23:12;;;;;;;5.50;3.07;;;23.00;91.00;;;;;;10364286;28;20407;-66
2023/08/22 00:28:14;;;;;;;4.40;3.20;;;23.00;91.00;;;;;;10363489;28;20534;-65
2023/08/22 00:33:14;;;;;;;4.57;3.33;;;23.00;91.10;;;;;;10363501;28;20408;-65
2023/08/22 00:38:15;;;;;;;4.70;3.10;;;23.00;91.00;;;;;;10364409;28;20414;-65
2023/08/22 00:43:16;;;;;;;3.97;3.00;;;23.00;91.10;;;;;;10362849;28;20462;-65
2023/08/22 00:48:16;;;;;;;3.97;3.10;;;23.00;91.30;;;;;;10364688;28;20414;-66
2023/08/22 00:53:17;;;;;;;5.33;3.10;;;22.90;91.00;;;;;;10359752;28;20935;-66
2023/08/22 00:58:18;;;;;;;4.10;3.27;;;22.90;91.00;;;;;;10371083;28;20400;-65
2023/08/22 01:03:18;;;;;;;5.10;3.00;;;22.90;91.00;;;;;;10372203;28;20400;-65
2023/08/22 01:08:24;;;;;;;3.70;2.97;;;22.90;91.00;;;;;;10374221;28;21019;-65
2023/08/22 01:13:31;;;;;;;3.97;2.80;;;22.90;91.00;;;;;;10376823;28;20406;-64
2023/08/22 01:18:33;;;;;;;3.73;2.90;;;22.80;91.00;;;;;;10367499;28;20410;-65
2023/08/22 01:23:33;;;;;;;4.78;2.97;;;22.80;91.00;;;;;;10380870;28;20404;-66
2023/08/22 01:28:45;;;;;;;3.50;2.72;;;22.80;91.00;;;;;;10368790;28;20776;-64
2023/08/22 01:33:46;;;;;;;3.13;2.83;;;22.80;91.00;;;;;;10368159;28;20430;-66
2023/08/22 01:38:48;;;;;;;3.70;2.70;;;22.80;91.00;;;;;;10357506;28;20501;-65
2023/08/22 01:43:52;;;;;;;5.70;2.90;;;22.70;91.00;;;;;;10368727;28;20397;-64
2023/08/22 01:48:52;;;;;;;4.07;3.00;;;22.70;91.00;;;;;;10367790;28;20823;-66
2023/08/22 01:53:53;;;;;;;4.63;2.90;;;22.70;91.00;;;;;;10353593;28;20412;-63
2023/08/22 01:58:54;;;;;;;4.97;3.00;;;22.70;91.00;;;;;;10364776;28;20405;-63
2023/08/22 02:03:54;;;;;;;4.23;2.80;;;22.70;91.10;;;;;;10367236;28;20459;-63
2023/08/22 02:08:55;;;;;;;3.72;2.72;;;22.70;91.10;;;;;;10362643;28;20424;-66
2023/08/22 02:13:56;;;;;;;4.78;2.95;;;22.60;91.10;;;;;;10368600;28;20397;-66
2023/08/22 02:18:56;;;;;;;4.73;3.10;;;22.60;91.10;;;;;;10370074;28;20504;-64
2023/08/22 02:23:57;;;;;;;3.93;3.00;;;22.60;91.10;;;;;;10364780;28;20941;-65
2023/08/22 02:28:58;;;;;;;4.87;3.00;;;22.60;91.10;;;;;;10367590;28;20413;-66
2023/08/22 02:33:58;;;;;;;3.77;3.10;;;22.60;91.10;;;;;;10364354;28;20393;-66
2023/08/22 02:38:59;;;;;;;3.42;2.85;;;22.50;91.10;;;;;;10364877;28;20776;-66
2023/08/22 02:43:59;;;;;;;5.68;3.00;;;22.50;91.10;;;;;;10364258;28;20484;-65
2023/08/22 02:49:00;;;;;;;4.10;2.87;;;22.50;91.10;;;;;;10353462;28;20836;-65
2023/08/22 02:54:01;;;;;;;4.35;2.92;;;22.50;91.10;;;;;;10360939;28;20794;-65
2023/08/22 02:59:03;;;;;;;5.00;3.30;;;22.50;91.10;;;;;;10350410;28;20447;-66
2023/08/22 03:04:04;;;;;;;4.23;3.27;;;22.50;91.10;;;;;;10364021;28;20912;-64
2023/08/22 03:09:05;;;;;;;4.00;3.10;;;22.50;91.10;;;;;;10362795;28;20413;-65
2023/08/22 03:14:06;;;;;;;5.05;3.15;;;22.50;91.00;;;;;;10362756;28;20397;-66
2023/08/22 03:19:07;;;;;;;3.73;3.20;;;22.40;91.00;;;;;;10358742;28;20461;-65
2023/08/22 03:24:08;;;;;;;4.47;3.40;;;22.40;91.00;;;;;;10344886;28;21212;-66
2023/08/22 03:29:08;;;;;;;4.17;3.10;;;22.40;91.00;;;;;;10359216;28;20512;-65
2023/08/22 03:34:09;;;;;;;6.70;3.37;;;22.30;91.00;;;;;;10358765;28;20404;-65
2023/08/22 03:39:10;;;;;;;5.70;3.50;;;22.30;91.00;;;;;;10362436;28;20396;-64
2023/08/22 03:44:10;;;;;;;4.70;3.30;;;22.30;91.00;;;;;;10356890;28;20411;-65
2023/08/22 03:49:11;;;;;;;5.20;3.20;;;22.30;91.00;;;;;;10359206;28;20420;-64
2023/08/22 03:54:12;;;;;;;4.90;3.30;;;22.30;91.00;;;;;;10357055;28;20489;-65
2023/08/22 03:59:12;;;;;;;4.10;3.50;;;22.20;91.00;;;;;;10343907;28;20401;-65
2023/08/22 04:04:14;;;;;;;3.90;3.15;;;22.20;91.00;;;;;;10358835;28;20405;-66
2023/08/22 04:09:15;;;;;;;4.43;3.50;;;22.20;91.00;;;;;;10359361;28;20416;-66
2023/08/22 04:14:16;;;;;;;5.25;3.63;;;22.10;91.00;;;;;;10359783;28;20408;-64
2023/08/22 04:19:16;;;;;;;5.07;3.88;;;22.20;91.00;;;;;;10353939;28;20488;-66
2023/08/22 04:24:17;;;;;;;4.70;3.60;;;22.10;91.00;;;;;;10357478;28;20479;-65
2023/08/22 04:29:17;;;;;;;4.60;3.55;;;22.10;91.00;;;;;;10356227;28;20463;-65
2023/08/22 04:34:18;;;;;;;4.93;3.73;;;22.10;91.00;;;;;;10356563;28;20495;-66
2023/08/22 04:39:19;;;;;;;5.23;3.50;;;22.10;91.00;;;;;;10354848;28;20400;-64
2023/08/22 04:44:19;;;;;;;5.27;3.40;;;22.10;91.00;;;;;;10349529;28;20431;-65
2023/08/22 04:49:20;;;;;;;3.97;3.43;;;22.00;91.00;;;;;;10353534;28;20503;-66
2023/08/22 04:54:21;;;;;;;3.73;3.30;;;22.00;91.00;;;;;;10358046;28;20758;-64
2023/08/22 04:59:22;;;;;;;4.32;3.30;;;22.00;90.90;;;;;;10358802;28;20495;-65
2023/08/22 05:04:22;;;;;;;4.17;3.57;;;22.00;90.90;;;;;;10357113;28;20474;-65
2023/08/22 05:09:23;;;;;;;5.17;3.40;;;22.00;90.90;;;;;;10355002;28;20817;-65
2023/08/22 05:14:24;;;;;;;4.73;3.60;;;22.00;90.90;;;;;;10357108;28;20409;-65
2023/08/22 05:19:24;;;;;;;3.80;3.40;;;22.00;90.80;;;;;;10358404;28;20401;-66
2023/08/22 05:24:25;;;;;;;5.37;3.40;;;21.90;90.80;;;;;;10355614;28;20408;-64
2023/08/22 05:29:27;;;;;;;4.37;3.30;;;22.00;90.80;;;;;;10355794;28;20498;-66
2023/08/22 05:34:28;;;;;;;4.13;3.47;;;21.90;90.80;;;;;;10352172;28;20929;-66
2023/08/22 05:39:28;;;;;;;4.07;3.40;;;21.90;90.80;;;;;;10359979;28;20413;-64
2023/08/22 05:44:32;;;;;;;3.73;3.30;;;21.90;90.90;;;;;;10364377;28;20788;-65
2023/08/22 05:49:33;;;;;;;4.57;3.55;;;21.90;90.90;;;;;;10364983;28;20492;-65
2023/08/22 05:54:33;;;;;;;4.30;3.42;;;21.90;91.00;;;;;;10363565;28;20477;-64
2023/08/22 05:59:34;;;;;;;4.30;3.50;;;21.90;91.00;;;;;;10348932;28;20419;-67
2023/08/22 06:04:35;;;;;;;5.00;3.60;;;21.90;91.00;;;;;;10347592;28;20444;-66
2023/08/22 06:09:36;;;;;;;3.93;3.53;;;21.90;91.20;;;;;;10352651;28;20420;-67
2023/08/22 06:14:36;;;;;;;5.70;3.73;;;21.90;91.30;;;;;;10355092;28;20499;-67
2023/08/22 06:19:37;;;;;;;4.63;3.60;;;21.90;91.50;;;;;;10345429;28;20423;-67
2023/08/22 06:24:38;;;;;;;5.50;3.70;;;21.90;91.10;;;;;;10359530;28;20751;-66
2023/08/22 06:29:38;;;;;;;5.43;3.63;;;21.90;91.40;;;;;;10358772;28;20414;-67
2023/08/22 06:34:39;;;;;;;4.45;3.60;;;21.90;91.40;;;;;;10344319;28;20800;-68
2023/08/22 06:39:40;;;;;;;4.72;3.50;;;21.90;91.30;;;;;;10353757;28;20409;-67
2023/08/22 06:44:43;;;;;;;4.83;3.77;;;21.90;91.20;;;;;;10366864;28;20488;-66
2023/08/22 06:49:43;;;;;;;5.23;3.93;;;21.90;91.20;;;;;;10366006;28;20415;-69
2023/08/22 06:54:44;;;;;;;5.27;3.93;;;21.90;91.30;;;;;;10362548;28;20437;-66
2023/08/22 06:59:45;;;;;;;7.57;4.80;;;21.90;91.50;;;;;;10368326;28;20395;-67
2023/08/22 07:04:45;;;;;;;7.50;4.40;;;21.90;91.50;;;;;;10350620;28;20765;-68
2023/08/22 07:09:49;;;;;;;6.83;4.10;;;21.90;91.80;;;;;;10366047;28;20411;-68
2023/08/22 07:14:50;;;;;;;6.80;4.53;;;21.90;91.80;;;;;;10357427;28;20415;-66
2023/08/22 07:19:50;;;;;;;6.50;4.40;;;21.90;91.70;;;;;;10360789;28;20482;-68
2023/08/22 07:24:51;;;;;;;4.90;4.17;;;22.00;91.60;;;;;;10365626;28;20412;-68
2023/08/22 07:29:52;;;;;;;5.93;4.17;;;22.00;91.60;;;;;;10363663;28;20482;-67
2023/08/22 07:34:52;;;;;;;5.47;4.07;;;22.10;91.50;;;;;;10357665;28;20478;-68
2023/08/22 07:39:53;;;;;;;5.72;4.05;;;22.10;91.50;;;;;;10360501;28;20404;-67
2023/08/22 07:44:54;;;;;;;6.13;4.10;;;22.10;91.40;;;;;;10357806;28;20437;-68
2023/08/22 07:49:54;;;;;;;5.65;3.97;;;22.20;91.40;;;;;;10360864;28;20447;-68
2023/08/22 07:54:55;;;;;;;4.97;3.80;;;22.20;91.40;;;;;;10363268;28;20844;-67
2023/08/22 07:59:55;;;;;;;5.07;4.00;;;22.20;91.60;;;;;;10349986;28;20391;-67
2023/08/22 08:04:56;;;;;;;5.87;3.73;;;22.20;91.30;;;;;;10361680;28;20412;-69
2023/08/22 08:09:56;;;;;;;5.67;3.77;;;22.30;91.40;;;;;;10355039;28;20429;-68
2023/08/22 08:14:57;;;;;;;5.93;3.87;;;22.30;91.20;;;;;;10351628;28;20416;-68
2023/08/22 08:19:58;;;;;;;4.77;3.43;;;22.30;91.20;;;;;;10357519;28;20456;-68
2023/08/22 08:24:58;;;;;;;4.65;3.50;;;22.30;91.10;;;;;;10359820;28;20440;-69
2023/08/22 08:29:59;;;;;;;4.13;3.42;;;22.40;91.00;;;;;;10361348;28;20507;-69
2023/08/22 08:35:00;;;;;;;4.05;3.25;;;22.40;91.10;;;;;;10359119;28;20416;-68
2023/08/22 08:40:01;;;;;;;4.75;3.60;;;22.40;91.10;;;;;;10355626;28;20428;-69
2023/08/22 08:45:06;;;;;;;4.97;3.50;;;22.40;91.10;;;;;;10362309;28;20840;-67
2023/08/22 08:50:07;;;;;;;4.07;3.50;;;22.50;91.10;;;;;;10359425;28;20526;-69
2023/08/22 08:55:10;;;;;;;5.38;3.60;;;22.50;91.00;;;;;;10360152;28;20904;-68
2023/08/22 09:00:11;;;;;;;4.90;3.22;;;22.50;91.20;;;;;;10355805;28;20408;-69
2023/08/22 09:05:12;;;;;;;5.13;3.70;;;22.50;91.20;;;;;;10356059;28;20462;-68
2023/08/22 09:10:12;;;;;;;4.77;3.50;;;22.60;91.20;;;;;;10354377;28;20412;-67
2023/08/22 09:15:18;;;;;;;4.83;3.53;;;22.60;91.10;;;;;;10344383;28;20409;-68
2023/08/22 09:20:19;;;;;;;5.20;3.40;;;22.60;91.10;;;;;;10363286;28;20393;-68
2023/08/22 09:25:20;;;;;;;4.97;3.47;;;22.60;91.00;;;;;;10365490;28;20412;-68
2023/08/22 09:30:24;;;;;;;5.80;3.47;;;22.60;91.00;;;;;;10362461;28;20416;-67
2023/08/22 09:35:32;;;;;;;4.68;3.30;;;22.60;91.00;;;;;;10361990;28;20404;-69
2023/08/22 09:40:33;;;;;;;5.43;3.53;;;22.60;91.10;;;;;;10360752;28;20490;-67
2023/08/22 09:45:39;;;;;;;4.47;3.30;;;22.60;91.00;;;;;;10363146;28;20431;-67
2023/08/22 09:50:45;;;;;;;4.32;3.20;;;22.70;91.00;;;;;;10362935;28;20417;-67
2023/08/22 09:55:46;;;;;;;5.70;3.00;;;22.80;90.90;;;;;;10357412;28;20602;-68
2023/08/22 10:00:49;;;;;;;4.17;2.70;;;22.80;90.80;;;;;;10360446;28;20413;-67
2023/08/22 10:05:51;;;;;;;5.18;2.90;;;22.90;90.70;;;;;;10343101;28;20431;-68
2023/08/22 10:10:52;;;;;;;5.85;3.00;;;22.90;90.60;;;;;;10363395;28;20415;-67
2023/08/22 10:15:53;;;;;;;3.73;2.60;;;22.90;90.40;;;;;;10347428;28;20408;-68
2023/08/22 10:20:54;;;;;;;3.33;2.50;;;23.40;90.30;;;;;;10360511;28;20401;-68
2023/08/22 10:25:55;;;;;;;4.15;2.40;;;23.00;90.10;;;;;;10358641;28;20495;-67
2023/08/22 10:31:04;;;;;;;3.77;2.57;;;23.00;90.10;;;;;;10358395;28;20456;-68
2023/08/22 10:36:15;;;;;;;3.42;2.35;;;23.00;90.00;;;;;;10360046;28;20499;-68
2023/08/22 10:41:16;;;;;;;4.28;2.50;;;23.10;90.10;;;;;;10361402;28;20424;-67
2023/08/22 10:46:16;;;;;;;3.03;2.50;;;23.10;90.10;;;;;;10370246;28;20402;-69
2023/08/22 10:51:17;;;;;;;2.88;2.30;;;23.10;90.10;;;;;;10346762;28;20943;-69
2023/08/22 10:56:23;;;;;;;3.00;2.40;;;23.10;90.00;;;;;;10362247;28;20422;-68
2023/08/22 11:01:24;;;;;;;4.43;2.40;;;23.20;90.00;;;;;;10346871;28;20411;-69
2023/08/22 11:06:25;;;;;;;2.65;2.33;;;23.20;90.00;;;;;;10363818;28;20916;-67
2023/08/22 11:11:26;;;;;;;3.70;2.20;;;23.20;90.10;;;;;;10363859;28;20411;-69
2023/08/22 11:16:27;;;;;;;3.85;2.35;;;23.30;90.00;;;;;;10364176;28;20852;-69
2023/08/22 11:21:28;;;;;;;2.50;2.10;;;23.30;90.30;;;;;;10351244;28;20470;-68
2023/08/22 11:26:29;;;;;;;2.87;2.20;;;23.40;90.10;;;;;;10344558;28;20819;-68
2023/08/22 11:31:30;;;;;;;3.60;2.00;;;23.40;89.90;;;;;;10364661;28;20411;-69
2023/08/22 11:36:33;;;;;;;3.97;2.00;;;23.50;90.00;;;;;;10346929;28;20396;-68
2023/08/22 11:41:33;;;;;;;4.15;2.30;;;23.60;90.00;;;;;;10360773;28;20413;-67
2023/08/22 11:46:37;;;;;;;3.22;2.20;;;23.70;90.00;;;;;;10360026;28;20409;-69
2023/08/22 11:51:42;;;;;;;2.65;2.10;;;23.70;90.00;;;;;;10357131;28;20424;-69
2023/08/22 11:56:42;;;;;;;5.88;2.50;;;23.80;89.80;;;;;;10364924;28;20404;-68
2023/08/22 12:01:43;;;;;;;3.03;2.30;;;23.80;90.00;;;;;;10363160;28;20791;-68
2023/08/22 12:07:00;;;;;;;4.33;2.33;;;23.90;90.00;;;;;;10361274;28;20462;-68
2023/08/22 12:12:27;;;;;;;4.87;2.57;;;24.00;90.10;;;;;;10358825;28;20420;-66
2023/08/22 12:17:28;;;;;;;3.67;2.20;;;24.10;89.90;;;;;;10348047;28;20407;-69
2023/08/22 12:22:32;;;;;;;3.92;1.92;;;24.10;89.80;;;;;;10344232;28;20408;-69
2023/08/22 12:27:32;;;;;;;4.10;2.13;;;24.20;88.90;;;;;;10363952;28;20416;-68
2023/08/22 12:32:33;;;;;;;4.10;2.10;;;24.20;88.50;;;;;;10353891;28;20420;-68
2023/08/22 12:37:34;;;;;;;3.87;2.00;;;24.20;89.20;;;;;;10359531;28;20620;-68
2023/08/22 12:42:35;;;;;;;2.83;2.00;;;25.30;89.00;;;;;;10360870;28;20404;-69
2023/08/22 12:47:37;;;;;;;2.97;2.00;;;24.40;88.40;;;;;;10342944;28;20405;-69
2023/08/22 12:52:38;;;;;;;4.55;1.98;;;24.40;88.30;;;;;;10359335;28;20512;-69
2023/08/22 12:57:40;;;;;;;3.67;2.00;;;24.40;88.50;;;;;;10358278;28;20401;-69
2023/08/22 13:02:41;;;;;;;2.42;2.00;;;24.50;88.60;;;;;;10358741;28;20470;-69
2023/08/22 13:07:43;;;;;;;3.90;2.20;;;24.50;88.60;;;;;;10357397;28;20412;-69
2023/08/22 13:12:44;;;;;;;3.63;2.20;;;24.60;88.90;;;;;;10358486;28;20421;-69
2023/08/22 13:17:45;;;;;;;4.87;2.73;;;24.60;89.00;;;;;;10350771;28;20393;-68
2023/08/22 13:22:46;;;;;;;5.73;2.50;;;24.70;89.10;;;;;;10357239;28;20454;-69
2023/08/22 13:27:46;;;;;;;3.50;2.30;;;24.70;89.30;;;;;;10357467;28;20432;-70
2023/08/22 13:32:47;;;;;;;2.80;2.10;;;24.80;89.10;;;;;;10357142;28;21069;-69
2023/08/22 13:37:47;;;;;;;4.50;2.78;;;24.90;89.20;;;;;;10354833;28;20401;-70
2023/08/22 13:42:59;;;;;;;4.20;2.58;;;24.90;89.40;;;;;;10357751;28;20543;-69
2023/08/22 13:48:00;;;;;;;5.20;2.40;;;24.90;89.30;;;;;;10339236;28;20408;-69
2023/08/22 13:53:01;;;;;;;4.00;2.17;;;25.10;89.20;;;;;;10339500;28;20424;-69
2023/08/22 13:58:02;;;;;;;3.47;2.30;;;25.20;89.30;;;;;;10353185;28;21050;-70
2023/08/22 14:03:03;;;;;;;4.50;2.17;;;25.30;88.90;;;;;;10357793;28;20462;-68
2023/08/22 14:08:05;;;;;;;3.45;2.15;;;25.30;88.70;;;;;;10361150;28;20411;-69
2023/08/22 14:13:06;;;;;;;3.75;2.30;;;25.30;88.30;;;;;;10359049;28;20436;-69
2023/08/22 14:18:08;;;;;;;4.50;2.47;;;25.30;89.30;;;;;;10361113;28;20913;-69
2023/08/22 14:23:10;;;;;;;3.22;2.08;;;25.30;89.20;;;;;;10361266;28;20403;-68
2023/08/22 14:28:11;;;;;;;3.00;2.00;;;25.40;89.70;;;;;;10362253;28;20867;-69
2023/08/22 14:33:11;;;;;;;5.30;2.30;;;25.50;89.50;;;;;;10361050;28;20401;-70
2023/08/22 14:38:13;;;;;;;3.03;2.13;;;25.60;89.70;;;;;;10343412;28;20502;-67
2023/08/22 14:43:13;;;;;;;4.03;2.23;;;25.70;89.30;;;;;;10360867;28;20745;-70
2023/08/22 14:48:14;;;;;;;2.77;2.10;;;25.80;89.00;;;;;;10340897;28;20529;-67
2023/08/22 14:53:19;;;;;;;3.60;2.30;;;25.90;88.90;;;;;;10360486;28;20559;-70
2023/08/22 14:58:19;;;;;;;2.88;2.03;;;26.00;88.40;;;;;;10359120;28;20416;-70
2023/08/22 15:03:21;;;;;;;4.90;2.50;;;26.10;88.40;;;;;;10358151;28;20404;-68
2023/08/22 15:08:21;;;;;;;4.63;2.20;;;26.20;87.40;;;;;;10341894;28;20409;-68
2023/08/22 15:13:22;;;;;;;3.83;2.20;;;26.30;87.50;;;;;;10358930;28;20795;-68
2023/08/22 15:18:24;;;;;;;4.57;2.50;;;26.50;87.60;;;;;;10361196;28;20464;-68
2023/08/22 15:23:25;;;;;;;3.80;2.30;;;26.30;86.90;;;;;;10360163;28;20488;-68
2023/08/22 15:28:26;;;;;;;2.85;2.25;;;26.60;87.30;;;;;;10356029;28;20467;-68
2023/08/22 15:33:27;;;;;;;4.15;2.35;;;26.70;87.20;;;;;;10360521;28;20543;-68
2023/08/22 15:38:32;;;;;;;3.10;2.50;;;26.80;86.80;;;;;;10340648;28;20393;-71
2023/08/22 15:43:32;;;;;;;2.83;2.53;;;26.80;86.60;;;;;;10359348;28;20408;-69
2023/08/22 15:48:33;;;;;;;3.50;2.70;;;26.90;86.50;;;;;;10355884;28;20408;-69
2023/08/22 15:53:34;;;;;;;4.83;2.60;;;27.00;86.90;;;;;;10359055;28;20416;-69
2023/08/22 15:58:34;;;;;;;3.42;2.50;;;27.00;86.60;;;;;;10339869;28;20482;-69
2023/08/22 16:03:35;;;;;;;4.27;3.17;;;27.10;86.50;;;;;;10357779;28;20467;-69
2023/08/22 16:08:36;;;;;;;3.97;2.50;;;27.10;86.50;;;;;;10355549;28;20419;-68
2023/08/22 16:13:36;;;;;;;2.97;2.60;;;27.00;86.80;;;;;;10356021;28;20966;-70
2023/08/22 16:18:37;;;;;;;3.67;2.67;;;27.00;87.10;;;;;;10357562;28;20459;-71
2023/08/22 16:23:38;;;;;;;3.33;2.80;;;26.90;87.20;;;;;;10357813;28;20400;-70
2023/08/22 16:28:39;;;;;;;4.78;2.65;;;26.90;87.50;;;;;;10353600;28;20420;-69
2023/08/22 16:33:40;;;;;;;4.65;3.20;;;26.80;87.80;;;;;;10357053;28;20491;-69
2023/08/22 16:38:41;;;;;;;3.43;2.77;;;26.70;87.90;;;;;;10342251;28;20450;-69
2023/08/22 16:43:42;;;;;;;4.27;2.97;;;26.60;88.00;;;;;;10346362;28;20486;-69
2023/08/22 16:48:42;;;;;;;3.43;2.80;;;26.60;88.10;;;;;;10362344;28;20408;-69
2023/08/22 16:53:43;;;;;;;3.88;2.58;;;26.60;88.20;;;;;;10361738;28;20752;-69
2023/08/22 16:58:44;;;;;;;5.10;3.07;;;26.50;88.10;;;;;;10364231;28;20445;-70
2023/08/22 17:03:45;;;;;;;4.33;2.80;;;26.50;88.70;;;;;;10358890;28;20398;-68
2023/08/22 17:08:45;;;;;;;4.05;2.97;;;26.50;88.40;;;;;;10351895;28;20405;-68
2023/08/22 17:13:46;;;;;;;4.37;2.80;;;26.40;88.10;;;;;;10360561;28;20494;-67
2023/08/22 17:18:48;;;;;;;3.50;2.80;;;26.40;88.40;;;;;;10362044;28;20413;-70
2023/08/22 17:23:48;;;;;;;4.18;1.90;;;26.30;87.90;;;;;;10360102;28;20911;-69
2023/08/22 17:28:49;;;;;;;3.50;1.70;;;26.20;83.70;;;;;;10363759;28;20510;-69
2023/08/22 17:33:49;;;;;;;3.80;1.70;;;25.90;83.10;;;;;;10362489;28;20419;-70
2023/08/22 17:38:50;;;;;;;3.67;1.90;;;25.80;83.60;;;;;;10371004;28;20491;-71
2023/08/22 17:43:51;;;;;;;4.18;1.73;;;25.60;83.60;;;;;;10370781;28;20761;-70
2023/08/22 17:48:52;;;;;;;4.35;1.67;;;25.40;84.10;;;;;;10370026;28;20417;-69
2023/08/22 17:53:53;;;;;;;5.07;1.90;;;25.20;84.40;;;;;;10368758;28;20416;-68
2023/08/22 17:58:54;;;;;;;3.53;1.70;;;25.00;85.30;;;;;;10361446;28;20912;-68
2023/08/22 18:03:54;;;;;;;4.47;2.08;;;24.90;85.60;;;;;;10367726;28;20906;-68
2023/08/22 18:08:55;;;;;;;5.50;2.13;;;24.90;85.50;;;;;;10360874;28;20415;-68
2023/08/22 18:13:56;;;;;;;5.73;1.90;;;24.90;85.50;;;;;;10366708;28;20476;-67
2023/08/22 18:18:56;;;;;;;3.60;2.00;;;24.80;85.90;;;;;;10364150;28;20456;-68
2023/08/22 18:23:57;;;;;;;2.55;1.63;;;24.70;86.20;;;;;;10368036;28;20898;-68
2023/08/22 18:28:59;;;;;;;5.40;1.93;;;24.60;86.90;;;;;;10364087;28;20412;-67
2023/08/22 18:34:00;;;;;;;6.65;2.05;;;24.50;87.60;;;;;;10353795;28;20415;-67
2023/08/22 18:39:00;;;;;;;4.80;2.40;;;24.40;88.10;;;;;;10365895;28;20427;-69
2023/08/22 18:44:02;;;;;;;6.27;2.20;;;24.40;88.50;;;;;;10365295;28;20414;-69
2023/08/22 18:49:02;;;;;;;5.28;2.00;;;24.30;88.80;;;;;;10364026;28;20915;-71
2023/08/22 18:54:03;;;;;;;4.03;1.98;;;24.10;89.80;;;;;;10347566;28;20422;-67
2023/08/22 18:59:04;;;;;;;4.75;1.92;;;24.10;89.60;;;;;;10356062;28;20816;-66
2023/08/22 19:04:05;;;;;;;5.35;2.00;;;24.20;89.40;;;;;;10356849;28;20799;-65
2023/08/22 19:09:05;;;;;;;4.78;1.92;;;24.40;89.30;;;;;;10356512;28;20423;-67
2023/08/22 19:14:06;;;;;;;2.78;1.85;;;24.40;89.10;;;;;;10358731;28;20415;-67
2023/08/22 19:19:07;;;;;;;4.07;1.83;;;24.50;89.00;;;;;;10357161;28;20931;-67
2023/08/22 19:24:07;;;;;;;3.20;1.80;;;24.50;88.90;;;;;;10342616;28;20420;-67
2023/08/22 19:29:08;;;;;;;3.60;1.87;;;24.50;88.80;;;;;;10355875;28;20512;-68
2023/08/22 19:34:09;;;;;;;3.35;1.85;;;24.60;88.90;;;;;;10355254;28;20488;-66
2023/08/22 19:39:14;;;;;;;5.00;2.30;;;24.50;88.80;;;;;;10355782;28;20421;-67
2023/08/22 19:44:15;;;;;;;3.57;1.93;;;24.60;88.90;;;;;;10355455;28;20412;-67
2023/08/22 19:49:16;;;;;;;2.77;1.80;;;24.50;88.80;;;;;;10356536;28;20861;-67
2023/08/22 19:54:16;;;;;;;4.40;2.10;;;24.60;88.90;;;;;;10356623;28;20413;-67
2023/08/22 19:59:17;;;;;;;2.65;2.22;;;24.60;88.90;;;;;;10338615;28;20490;-67
2023/08/22 20:04:23;;;;;;;3.05;1.90;;;24.50;88.90;;;;;;10356005;28;20472;-67
2023/08/22 20:09:24;;;;;;;3.50;2.20;;;24.50;89.00;;;;;;10352479;28;20428;-67
2023/08/22 20:14:25;;;;;;;3.37;2.07;;;24.30;88.80;;;;;;10349486;28;20413;-67
2023/08/22 20:19:25;;;;;;;3.30;2.20;;;24.50;89.00;;;;;;10353243;28;20406;-66
2023/08/22 20:24:26;;;;;;;3.40;2.40;;;24.50;89.00;;;;;;10354189;28;20415;-66
2023/08/22 20:29:28;;;;;;;3.85;2.30;;;24.50;89.10;;;;;;10345570;28;20419;-67
2023/08/22 20:34:28;;;;;;;3.63;2.40;;;24.40;89.00;;;;;;10353734;28;20409;-66
2023/08/22 20:39:30;;;;;;;3.07;2.60;;;24.40;89.20;;;;;;10353774;28;20823;-66
2023/08/22 20:44:30;;;;;;;3.78;2.67;;;24.40;89.30;;;;;;10352819;28;20396;-66
2023/08/22 20:49:31;;;;;;;2.60;2.40;;;24.40;89.10;;;;;;10351678;28;20413;-66
2023/08/22 20:54:32;;;;;;;3.27;2.70;;;24.30;89.10;;;;;;10335271;28;20400;-66
2023/08/22 20:59:33;;;;;;;3.78;2.58;;;24.30;89.10;;;;;;10353216;28;20463;-66
2023/08/22 21:04:33;;;;;;;3.90;2.80;;;24.30;89.20;;;;;;10342859;28;20972;-66
2023/08/22 21:09:36;;;;;;;3.57;2.60;;;24.20;89.20;;;;;;10348994;28;20410;-64
2023/08/22 21:14:36;;;;;;;4.57;2.95;;;24.20;89.10;;;;;;10357380;28;20415;-65
2023/08/22 21:19:37;;;;;;;3.72;3.00;;;24.20;89.20;;;;;;10351951;28;20463;-64
2023/08/22 21:24:42;;;;;;;3.72;3.00;;;24.20;89.20;;;;;;10360619;28;20820;-66
2023/08/22 21:29:44;;;;;;;4.10;3.03;;;24.10;89.20;;;;;;10352347;28;20987;-66
2023/08/22 21:34:44;;;;;;;3.92;3.10;;;24.10;89.20;;;;;;10363736;28;20408;-66
2023/08/22 21:39:45;;;;;;;4.33;2.90;;;24.10;89.30;;;;;;10363634;28;20408;-63
2023/08/22 21:44:46;;;;;;;3.97;3.33;;;24.10;89.40;;;;;;10360175;28;20405;-65
2023/08/22 21:49:46;;;;;;;5.47;3.53;;;24.10;89.40;;;;;;10360642;28;21019;-66
2023/08/22 21:54:47;;;;;;;4.27;3.60;;;24.00;89.40;;;;;;10369483;28;20955;-65
2023/08/22 21:59:48;;;;;;;5.13;3.65;;;24.00;89.40;;;;;;10365029;28;20413;-65
2023/08/22 22:04:48;;;;;;;4.30;3.50;;;24.00;89.40;;;;;;10364510;28;20507;-64
2023/08/22 22:09:49;;;;;;;4.23;3.50;;;23.90;89.30;;;;;;10359979;28;20431;-66
2023/08/22 22:14:50;;;;;;;4.97;3.70;;;23.90;89.30;;;;;;10362282;28;20399;-66
2023/08/22 22:19:50;;;;;;;4.13;3.73;;;23.90;89.30;;;;;;10360277;28;20799;-65
2023/08/22 22:24:51;;;;;;;4.10;3.70;;;23.80;89.20;;;;;;10366501;28;20987;-66
2023/08/22 22:29:52;;;;;;;4.20;3.40;;;23.80;89.20;;;;;;10342044;28;20498;-64
2023/08/22 22:34:53;;;;;;;4.20;3.80;;;23.70;89.10;;;;;;10366295;28;20466;-66
2023/08/22 22:39:53;;;;;;;4.10;3.30;;;23.70;89.10;;;;;;10363319;28;20997;-66
2023/08/22 22:44:55;;;;;;;4.30;3.42;;;23.70;89.00;;;;;;10363698;28;20923;-64
2023/08/22 22:49:56;;;;;;;6.07;4.00;;;23.70;89.00;;;;;;10343607;28;20416;-65
2023/08/22 22:54:56;;;;;;;5.13;3.60;;;23.60;89.10;;;;;;10357428;28;20412;-66
2023/08/22 22:59:57;;;;;;;4.70;3.60;;;23.60;89.00;;;;;;10354837;28;20421;-63
2023/08/22 23:04:57;;;;;;;4.23;3.77;;;23.60;89.00;;;;;;10361117;28;20877;-65
2023/08/22 23:09:58;;;;;;;3.92;3.45;;;23.60;89.00;;;;;;10346812;28;20448;-62
2023/08/22 23:15:00;;;;;;;4.97;3.87;;;23.50;88.90;;;;;;10349169;28;20429;-66
2023/08/22 23:20:09;;;;;;;5.20;3.40;;;23.40;88.90;;;;;;10362849;28;20429;-66
2023/08/22 23:25:09;;;;;;;4.40;3.47;;;23.40;88.90;;;;;;10362967;28;20447;-65
2023/08/22 23:30:14;;;;;;;4.43;3.35;;;23.40;88.90;;;;;;10357948;28;20828;-66
2023/08/22 23:35:14;;;;;;;3.78;3.25;;;23.40;88.90;;;;;;10363091;28;20777;-66
2023/08/22 23:40:26;;;;;;;4.70;3.40;;;23.30;88.80;;;;;;10364475;28;20410;-66
2023/08/22 23:45:29;;;;;;;4.17;3.17;;;23.30;88.80;;;;;;10359853;28;20408;-63
2023/08/22 23:50:30;;;;;;;3.95;3.30;;;23.30;88.80;;;;;;10362444;28;20448;-65
2023/08/22 23:55:31;;;;;;;3.53;3.00;;;23.20;88.70;;;;;;10363014;28;20931;-65
